sensor_id;sensor_type;location;lat;lon;timestamp;pressure;altitude;pressure_sealevel;temperature
71081;BMP180;58740;50.672;18.690;2023-03-14T00:01:18;97444.60;;;8.10
71081;BMP180;58740;50.672;18.690;2023-03-14T00:03:48;97442.40;;;8.10
71081;BMP180;58740;50.672;18.690;2023-03-14T00:06:17;97435.00;;;8.10
71081;BMP180;58740;50.672;18.690;2023-03-14T00:08:45;97433.00;;;8.10
71081;BMP180;58740;50.672;18.690;2023-03-14T00:11:19;97434.80;;;8.10
71081;BMP180;58740;50.672;18.690;2023-03-14T00:13:49;97425.60;;;8.10
71081;BMP180;58740;50.672;18.690;2023-03-14T00:16:18;97412.40;;;8.08
71081;BMP180;58740;50.672;18.690;2023-03-14T00:18:46;97413.40;;;8.02
71081;BMP180;58740;50.672;18.690;2023-03-14T00:21:14;97410.20;;;8.00
71081;BMP180;58740;50.672;18.690;2023-03-14T00:23:42;97394.80;;;8.00
71081;BMP180;58740;50.672;18.690;2023-03-14T00:26:17;97390.60;;;8.00
71081;BMP180;58740;50.672;18.690;2023-03-14T00:28:46;97387.00;;;7.90
71081;BMP180;58740;50.672;18.690;2023-03-14T00:31:15;97374.80;;;7.90
71081;BMP180;58740;50.672;18.690;2023-03-14T00:33:44;97373.60;;;7.90
71081;BMP180;58740;50.672;18.690;2023-03-14T00:36:16;97362.60;;;7.86
71081;BMP180;58740;50.672;18.690;2023-03-14T00:38:47;97365.40;;;7.80
71081;BMP180;58740;50.672;18.690;2023-03-14T00:41:19;97365.00;;;7.72
71081;BMP180;58740;50.672;18.690;2023-03-14T00:43:48;97370.00;;;7.70
71081;BMP180;58740;50.672;18.690;2023-03-14T00:46:16;97367.40;;;7.60
71081;BMP180;58740;50.672;18.690;2023-03-14T00:48:45;97355.20;;;7.60
71081;BMP180;58740;50.672;18.690;2023-03-14T00:51:14;97347.20;;;7.58
71081;BMP180;58740;50.672;18.690;2023-03-14T00:53:43;97341.00;;;7.50
71081;BMP180;58740;50.672;18.690;2023-03-14T00:56:12;97336.20;;;7.50
71081;BMP180;58740;50.672;18.690;2023-03-14T00:58:40;97327.60;;;7.50
71081;BMP180;58740;50.672;18.690;2023-03-14T01:01:13;97320.20;;;7.48
71081;BMP180;58740;50.672;18.690;2023-03-14T01:03:42;97295.80;;;7.40
71081;BMP180;58740;50.672;18.690;2023-03-14T01:06:19;97292.00;;;7.40
71081;BMP180;58740;50.672;18.690;2023-03-14T01:08:47;97277.80;;;7.40
71081;BMP180;58740;50.672;18.690;2023-03-14T01:11:35;97279.40;;;7.30
71081;BMP180;58740;50.672;18.690;2023-03-14T01:14:03;97272.40;;;7.30
71081;BMP180;58740;50.672;18.690;2023-03-14T01:16:35;97271.20;;;7.30
71081;BMP180;58740;50.672;18.690;2023-03-14T01:19:04;97267.60;;;7.20
71081;BMP180;58740;50.672;18.690;2023-03-14T01:21:34;97257.40;;;7.20
71081;BMP180;58740;50.672;18.690;2023-03-14T01:24:05;97245.20;;;7.20
71081;BMP180;58740;50.672;18.690;2023-03-14T01:26:34;97245.00;;;7.20
71081;BMP180;58740;50.672;18.690;2023-03-14T01:29:03;97247.20;;;7.26
71081;BMP180;58740;50.672;18.690;2023-03-14T01:31:31;97261.20;;;7.30
71081;BMP180;58740;50.672;18.690;2023-03-14T01:33:59;97257.80;;;7.30
71081;BMP180;58740;50.672;18.690;2023-03-14T01:36:27;97269.80;;;7.40
71081;BMP180;58740;50.672;18.690;2023-03-14T01:38:58;97267.40;;;7.40
71081;BMP180;58740;50.672;18.690;2023-03-14T01:41:26;97277.40;;;7.40
71081;BMP180;58740;50.672;18.690;2023-03-14T01:43:54;97274.20;;;7.40
71081;BMP180;58740;50.672;18.690;2023-03-14T01:46:37;97265.00;;;7.40
71081;BMP180;58740;50.672;18.690;2023-03-14T01:49:10;97262.80;;;7.40
71081;BMP180;58740;50.672;18.690;2023-03-14T01:51:55;97255.20;;;7.30
71081;BMP180;58740;50.672;18.690;2023-03-14T01:54:37;97256.00;;;7.28
71081;BMP180;58740;50.672;18.690;2023-03-14T01:57:35;97260.40;;;7.28
71081;BMP180;58740;50.672;18.690;2023-03-14T02:00:09;97262.60;;;7.28
71081;BMP180;58740;50.672;18.690;2023-03-14T02:02:46;97271.40;;;7.24
71081;BMP180;58740;50.672;18.690;2023-03-14T02:05:20;97293.40;;;7.22
71081;BMP180;58740;50.672;18.690;2023-03-14T02:07:56;97313.00;;;7.28
71081;BMP180;58740;50.672;18.690;2023-03-14T02:10:30;97314.00;;;7.30
71081;BMP180;58740;50.672;18.690;2023-03-14T02:13:02;97310.00;;;7.30
71081;BMP180;58740;50.672;18.690;2023-03-14T02:15:31;97303.60;;;7.30
71081;BMP180;58740;50.672;18.690;2023-03-14T02:18:01;97285.00;;;7.30
71081;BMP180;58740;50.672;18.690;2023-03-14T02:20:38;97281.80;;;7.30
71081;BMP180;58740;50.672;18.690;2023-03-14T02:23:10;97277.20;;;7.30
71081;BMP180;58740;50.672;18.690;2023-03-14T02:25:39;97263.40;;;7.32
71081;BMP180;58740;50.672;18.690;2023-03-14T02:28:10;97260.60;;;7.40
71081;BMP180;58740;50.672;18.690;2023-03-14T02:30:38;97266.40;;;7.40
71081;BMP180;58740;50.672;18.690;2023-03-14T02:33:13;97276.20;;;7.40
71081;BMP180;58740;50.672;18.690;2023-03-14T02:35:51;97257.20;;;7.40
71081;BMP180;58740;50.672;18.690;2023-03-14T02:38:33;97262.80;;;7.30
71081;BMP180;58740;50.672;18.690;2023-03-14T02:41:02;97264.80;;;7.30
71081;BMP180;58740;50.672;18.690;2023-03-14T02:43:30;97262.00;;;7.30
71081;BMP180;58740;50.672;18.690;2023-03-14T02:46:00;97259.20;;;7.20
71081;BMP180;58740;50.672;18.690;2023-03-14T02:48:39;97267.00;;;7.10
71081;BMP180;58740;50.672;18.690;2023-03-14T02:51:08;97277.80;;;7.10
71081;BMP180;58740;50.672;18.690;2023-03-14T02:53:37;97315.40;;;7.00
71081;BMP180;58740;50.672;18.690;2023-03-14T02:56:07;97344.60;;;7.00
71081;BMP180;58740;50.672;18.690;2023-03-14T02:58:35;97342.40;;;7.02
71081;BMP180;58740;50.672;18.690;2023-03-14T03:01:04;97335.80;;;7.08
71081;BMP180;58740;50.672;18.690;2023-03-14T03:03:32;97318.40;;;7.00
71081;BMP180;58740;50.672;18.690;2023-03-14T03:06:00;97316.60;;;7.00
71081;BMP180;58740;50.672;18.690;2023-03-14T03:08:28;97322.00;;;6.90
71081;BMP180;58740;50.672;18.690;2023-03-14T03:10:58;97323.40;;;6.90
71081;BMP180;58740;50.672;18.690;2023-03-14T03:13:26;97322.00;;;6.90
71081;BMP180;58740;50.672;18.690;2023-03-14T03:15:54;97311.20;;;6.80
71081;BMP180;58740;50.672;18.690;2023-03-14T03:18:21;97304.40;;;6.80
71081;BMP180;58740;50.672;18.690;2023-03-14T03:20:49;97302.20;;;6.70
71081;BMP180;58740;50.672;18.690;2023-03-14T03:23:17;97302.00;;;6.70
71081;BMP180;58740;50.672;18.690;2023-03-14T03:25:50;97307.20;;;6.70
71081;BMP180;58740;50.672;18.690;2023-03-14T03:28:19;97306.40;;;6.70
71081;BMP180;58740;50.672;18.690;2023-03-14T03:30:47;97312.40;;;6.70
71081;BMP180;58740;50.672;18.690;2023-03-14T03:33:15;97314.60;;;6.70
71081;BMP180;58740;50.672;18.690;2023-03-14T03:35:49;97304.60;;;6.70
71081;BMP180;58740;50.672;18.690;2023-03-14T03:38:17;97290.20;;;6.70
71081;BMP180;58740;50.672;18.690;2023-03-14T03:40:44;97290.80;;;6.60
71081;BMP180;58740;50.672;18.690;2023-03-14T03:43:12;97286.40;;;6.60
71081;BMP180;58740;50.672;18.690;2023-03-14T03:45:40;97285.60;;;6.60
71081;BMP180;58740;50.672;18.690;2023-03-14T03:48:08;97289.00;;;6.60
71081;BMP180;58740;50.672;18.690;2023-03-14T03:50:35;97286.60;;;6.60
71081;BMP180;58740;50.672;18.690;2023-03-14T03:53:04;97285.00;;;6.62
71081;BMP180;58740;50.672;18.690;2023-03-14T03:55:31;97277.40;;;6.70
71081;BMP180;58740;50.672;18.690;2023-03-14T03:57:59;97281.80;;;6.70
71081;BMP180;58740;50.672;18.690;2023-03-14T04:00:27;97274.80;;;6.70
71081;BMP180;58740;50.672;18.690;2023-03-14T04:02:54;97266.00;;;6.80
71081;BMP180;58740;50.672;18.690;2023-03-14T04:05:23;97251.40;;;6.80
71081;BMP180;58740;50.672;18.690;2023-03-14T04:07:50;97252.60;;;6.80
71081;BMP180;58740;50.672;18.690;2023-03-14T04:10:18;97260.20;;;6.90
71081;BMP180;58740;50.672;18.690;2023-03-14T04:12:46;97258.40;;;6.90
71081;BMP180;58740;50.672;18.690;2023-03-14T04:15:13;97239.40;;;6.90
71081;BMP180;58740;50.672;18.690;2023-03-14T04:17:41;97231.80;;;6.92
71081;BMP180;58740;50.672;18.690;2023-03-14T04:20:09;97233.40;;;7.00
71081;BMP180;58740;50.672;18.690;2023-03-14T04:22:40;97228.40;;;7.00
71081;BMP180;58740;50.672;18.690;2023-03-14T04:25:11;97220.40;;;7.04
71081;BMP180;58740;50.672;18.690;2023-03-14T04:27:38;97216.20;;;7.06
71081;BMP180;58740;50.672;18.690;2023-03-14T04:30:07;97203.40;;;7.08
71081;BMP180;58740;50.672;18.690;2023-03-14T04:32:35;97202.20;;;7.00
71081;BMP180;58740;50.672;18.690;2023-03-14T04:35:06;97196.20;;;7.00
71081;BMP180;58740;50.672;18.690;2023-03-14T04:37:34;97195.60;;;7.00
71081;BMP180;58740;50.672;18.690;2023-03-14T04:40:03;97200.00;;;7.04
71081;BMP180;58740;50.672;18.690;2023-03-14T04:42:33;97200.00;;;7.10
71081;BMP180;58740;50.672;18.690;2023-03-14T04:45:01;97193.00;;;7.10
71081;BMP180;58740;50.672;18.690;2023-03-14T04:47:29;97189.00;;;7.20
71081;BMP180;58740;50.672;18.690;2023-03-14T04:49:57;97187.60;;;7.20
71081;BMP180;58740;50.672;18.690;2023-03-14T04:52:26;97172.00;;;7.30
71081;BMP180;58740;50.672;18.690;2023-03-14T04:54:54;97176.60;;;7.30
71081;BMP180;58740;50.672;18.690;2023-03-14T04:57:22;97169.80;;;7.30
71081;BMP180;58740;50.672;18.690;2023-03-14T04:59:49;97162.80;;;7.30
71081;BMP180;58740;50.672;18.690;2023-03-14T05:02:17;97159.80;;;7.36
71081;BMP180;58740;50.672;18.690;2023-03-14T05:04:45;97155.80;;;7.30
71081;BMP180;58740;50.672;18.690;2023-03-14T05:07:12;97146.00;;;7.30
71081;BMP180;58740;50.672;18.690;2023-03-14T05:09:41;97142.80;;;7.30
71081;BMP180;58740;50.672;18.690;2023-03-14T05:12:09;97141.40;;;7.20
71081;BMP180;58740;50.672;18.690;2023-03-14T05:14:36;97149.60;;;7.20
71081;BMP180;58740;50.672;18.690;2023-03-14T05:17:04;97155.20;;;7.20
71081;BMP180;58740;50.672;18.690;2023-03-14T05:19:32;97149.40;;;7.20
71081;BMP180;58740;50.672;18.690;2023-03-14T05:22:02;97154.40;;;7.30
71081;BMP180;58740;50.672;18.690;2023-03-14T05:24:30;97149.20;;;7.30
71081;BMP180;58740;50.672;18.690;2023-03-14T05:26:58;97150.80;;;7.30
71081;BMP180;58740;50.672;18.690;2023-03-14T05:29:26;97147.60;;;7.40
71081;BMP180;58740;50.672;18.690;2023-03-14T05:31:53;97144.60;;;7.40
71081;BMP180;58740;50.672;18.690;2023-03-14T05:34:21;97138.60;;;7.40
71081;BMP180;58740;50.672;18.690;2023-03-14T05:36:49;97141.80;;;7.40
71081;BMP180;58740;50.672;18.690;2023-03-14T05:39:17;97146.60;;;7.40
71081;BMP180;58740;50.672;18.690;2023-03-14T05:41:45;97138.60;;;7.44
71081;BMP180;58740;50.672;18.690;2023-03-14T05:44:13;97132.80;;;7.42
71081;BMP180;58740;50.672;18.690;2023-03-14T05:46:40;97134.40;;;7.46
71081;BMP180;58740;50.672;18.690;2023-03-14T05:49:08;97128.00;;;7.50
71081;BMP180;58740;50.672;18.690;2023-03-14T05:51:36;97120.80;;;7.56
71081;BMP180;58740;50.672;18.690;2023-03-14T05:54:04;97113.80;;;7.60
71081;BMP180;58740;50.672;18.690;2023-03-14T05:56:32;97122.60;;;7.70
71081;BMP180;58740;50.672;18.690;2023-03-14T05:59:00;97116.00;;;7.70
71081;BMP180;58740;50.672;18.690;2023-03-14T06:01:30;97111.60;;;7.74
71081;BMP180;58740;50.672;18.690;2023-03-14T06:03:58;97107.20;;;7.80
71081;BMP180;58740;50.672;18.690;2023-03-14T06:06:26;97108.60;;;7.80
71081;BMP180;58740;50.672;18.690;2023-03-14T06:08:53;97099.00;;;7.80
71081;BMP180;58740;50.672;18.690;2023-03-14T06:11:21;97093.80;;;7.86
71081;BMP180;58740;50.672;18.690;2023-03-14T06:13:49;97093.80;;;7.90
71081;BMP180;58740;50.672;18.690;2023-03-14T06:16:18;97087.60;;;7.90
71081;BMP180;58740;50.672;18.690;2023-03-14T06:18:45;97085.00;;;8.00
71081;BMP180;58740;50.672;18.690;2023-03-14T06:21:15;97086.40;;;8.06
71081;BMP180;58740;50.672;18.690;2023-03-14T06:23:45;97078.40;;;8.10
71081;BMP180;58740;50.672;18.690;2023-03-14T06:26:13;97070.60;;;8.20
71081;BMP180;58740;50.672;18.690;2023-03-14T06:28:41;97059.40;;;8.20
71081;BMP180;58740;50.672;18.690;2023-03-14T06:31:08;97053.40;;;8.20
71081;BMP180;58740;50.672;18.690;2023-03-14T06:33:36;97057.40;;;8.30
71081;BMP180;58740;50.672;18.690;2023-03-14T06:36:04;97063.40;;;8.30
71081;BMP180;58740;50.672;18.690;2023-03-14T06:38:32;97063.80;;;8.30
71081;BMP180;58740;50.672;18.690;2023-03-14T06:41:05;97058.40;;;8.30
71081;BMP180;58740;50.672;18.690;2023-03-14T06:43:33;97060.80;;;8.30
71081;BMP180;58740;50.672;18.690;2023-03-14T06:46:01;97062.60;;;8.30
71081;BMP180;58740;50.672;18.690;2023-03-14T06:48:29;97051.80;;;8.40
71081;BMP180;58740;50.672;18.690;2023-03-14T06:50:57;97057.40;;;8.46
71081;BMP180;58740;50.672;18.690;2023-03-14T06:53:25;97057.60;;;8.50
71081;BMP180;58740;50.672;18.690;2023-03-14T06:55:53;97058.80;;;8.60
71081;BMP180;58740;50.672;18.690;2023-03-14T06:58:20;97074.60;;;8.60
71081;BMP180;58740;50.672;18.690;2023-03-14T07:00:48;97076.40;;;8.70
71081;BMP180;58740;50.672;18.690;2023-03-14T07:03:16;97071.40;;;8.70
71081;BMP180;58740;50.672;18.690;2023-03-14T07:05:44;97070.00;;;8.72
71081;BMP180;58740;50.672;18.690;2023-03-14T07:08:12;97078.60;;;8.80
71081;BMP180;58740;50.672;18.690;2023-03-14T07:10:39;97084.00;;;8.80
71081;BMP180;58740;50.672;18.690;2023-03-14T07:13:07;97083.60;;;8.80
71081;BMP180;58740;50.672;18.690;2023-03-14T07:15:35;97079.00;;;8.82
71081;BMP180;58740;50.672;18.690;2023-03-14T07:18:03;97069.20;;;8.90
71081;BMP180;58740;50.672;18.690;2023-03-14T07:20:31;97053.40;;;9.00
71081;BMP180;58740;50.672;18.690;2023-03-14T07:22:59;97034.20;;;9.10
71081;BMP180;58740;50.672;18.690;2023-03-14T07:25:27;97066.60;;;9.18
71081;BMP180;58740;50.672;18.690;2023-03-14T07:27:55;97098.40;;;9.20
71081;BMP180;58740;50.672;18.690;2023-03-14T07:30:23;97108.80;;;9.30
71081;BMP180;58740;50.672;18.690;2023-03-14T07:32:51;97115.60;;;9.30
71081;BMP180;58740;50.672;18.690;2023-03-14T07:35:19;97112.80;;;9.40
71081;BMP180;58740;50.672;18.690;2023-03-14T07:37:47;97103.00;;;9.50
71081;BMP180;58740;50.672;18.690;2023-03-14T07:40:15;97114.40;;;9.50
71081;BMP180;58740;50.672;18.690;2023-03-14T07:42:43;97116.00;;;9.60
71081;BMP180;58740;50.672;18.690;2023-03-14T07:45:11;97119.80;;;9.68
71081;BMP180;58740;50.672;18.690;2023-03-14T07:47:39;97112.80;;;9.70
71081;BMP180;58740;50.672;18.690;2023-03-14T07:50:07;97115.40;;;9.80
71081;BMP180;58740;50.672;18.690;2023-03-14T07:52:35;97119.00;;;9.80
71081;BMP180;58740;50.672;18.690;2023-03-14T07:55:04;97127.20;;;9.90
71081;BMP180;58740;50.672;18.690;2023-03-14T07:57:32;97127.00;;;9.96
71081;BMP180;58740;50.672;18.690;2023-03-14T07:59:59;97128.00;;;10.00
71081;BMP180;58740;50.672;18.690;2023-03-14T08:02:27;97113.40;;;10.10
71081;BMP180;58740;50.672;18.690;2023-03-14T08:04:55;97136.40;;;10.10
71081;BMP180;58740;50.672;18.690;2023-03-14T08:07:23;97120.20;;;10.10
71081;BMP180;58740;50.672;18.690;2023-03-14T08:09:51;97114.00;;;10.14
71081;BMP180;58740;50.672;18.690;2023-03-14T08:12:18;97106.20;;;10.20
71081;BMP180;58740;50.672;18.690;2023-03-14T08:14:46;97103.80;;;10.20
71081;BMP180;58740;50.672;18.690;2023-03-14T08:17:14;97107.40;;;10.20
71081;BMP180;58740;50.672;18.690;2023-03-14T08:19:42;97102.60;;;10.30
71081;BMP180;58740;50.672;18.690;2023-03-14T08:22:10;97105.60;;;10.30
71081;BMP180;58740;50.672;18.690;2023-03-14T08:24:38;97109.80;;;10.30
71081;BMP180;58740;50.672;18.690;2023-03-14T08:27:05;97118.80;;;10.30
71081;BMP180;58740;50.672;18.690;2023-03-14T08:29:37;97124.00;;;10.34
71081;BMP180;58740;50.672;18.690;2023-03-14T08:32:05;97134.00;;;10.40
71081;BMP180;58740;50.672;18.690;2023-03-14T08:34:33;97128.60;;;10.40
71081;BMP180;58740;50.672;18.690;2023-03-14T08:37:01;97139.40;;;10.40
71081;BMP180;58740;50.672;18.690;2023-03-14T08:39:33;97140.40;;;10.40
71081;BMP180;58740;50.672;18.690;2023-03-14T08:42:00;97138.40;;;10.40
71081;BMP180;58740;50.672;18.690;2023-03-14T08:44:28;97146.80;;;10.40
71081;BMP180;58740;50.672;18.690;2023-03-14T08:46:56;97136.20;;;10.36
71081;BMP180;58740;50.672;18.690;2023-03-14T08:49:24;97142.80;;;10.30
71081;BMP180;58740;50.672;18.690;2023-03-14T08:51:52;97133.40;;;10.30
71081;BMP180;58740;50.672;18.690;2023-03-14T08:54:20;97137.40;;;10.30
71081;BMP180;58740;50.672;18.690;2023-03-14T08:56:47;97136.20;;;10.30
71081;BMP180;58740;50.672;18.690;2023-03-14T08:59:15;97143.80;;;10.30
71081;BMP180;58740;50.672;18.690;2023-03-14T09:01:44;97142.40;;;10.30
71081;BMP180;58740;50.672;18.690;2023-03-14T09:04:12;97134.40;;;10.30
71081;BMP180;58740;50.672;18.690;2023-03-14T09:06:41;97131.00;;;10.34
71081;BMP180;58740;50.672;18.690;2023-03-14T09:09:09;97140.60;;;10.40
71081;BMP180;58740;50.672;18.690;2023-03-14T09:11:37;97138.80;;;10.40
71081;BMP180;58740;50.672;18.690;2023-03-14T09:14:05;97144.00;;;10.40
71081;BMP180;58740;50.672;18.690;2023-03-14T09:16:34;97148.40;;;10.40
71081;BMP180;58740;50.672;18.690;2023-03-14T09:19:01;97146.00;;;10.40
71081;BMP180;58740;50.672;18.690;2023-03-14T09:21:29;97151.20;;;10.40
71081;BMP180;58740;50.672;18.690;2023-03-14T09:23:57;97144.80;;;10.40
71081;BMP180;58740;50.672;18.690;2023-03-14T09:26:25;97145.60;;;10.40
71081;BMP180;58740;50.672;18.690;2023-03-14T09:28:52;97142.00;;;10.40
71081;BMP180;58740;50.672;18.690;2023-03-14T09:31:20;97146.40;;;10.40
71081;BMP180;58740;50.672;18.690;2023-03-14T09:33:48;97141.80;;;10.40
71081;BMP180;58740;50.672;18.690;2023-03-14T09:36:16;97152.80;;;10.48
71081;BMP180;58740;50.672;18.690;2023-03-14T09:38:43;97160.60;;;10.50
71081;BMP180;58740;50.672;18.690;2023-03-14T09:41:21;97163.20;;;10.50
71081;BMP180;58740;50.672;18.690;2023-03-14T09:44:14;97137.20;;;10.60
71081;BMP180;58740;50.672;18.690;2023-03-14T09:46:48;97126.40;;;10.60
71081;BMP180;58740;50.672;18.690;2023-03-14T09:49:27;97134.80;;;10.60
71081;BMP180;58740;50.672;18.690;2023-03-14T09:52:00;97126.00;;;10.60
71081;BMP180;58740;50.672;18.690;2023-03-14T09:54:49;97126.80;;;10.62
71081;BMP180;58740;50.672;18.690;2023-03-14T09:57:22;97140.00;;;10.70
71081;BMP180;58740;50.672;18.690;2023-03-14T09:59:58;97127.60;;;10.70
71081;BMP180;58740;50.672;18.690;2023-03-14T10:02:35;97131.00;;;10.70
71081;BMP180;58740;50.672;18.690;2023-03-14T10:05:14;97137.00;;;10.78
71081;BMP180;58740;50.672;18.690;2023-03-14T10:07:42;97145.00;;;10.80
71081;BMP180;58740;50.672;18.690;2023-03-14T10:10:22;97136.00;;;10.80
71081;BMP180;58740;50.672;18.690;2023-03-14T10:15:47;97137.20;;;11.00
71081;BMP180;58740;50.672;18.690;2023-03-14T10:18:15;97137.00;;;11.00
71081;BMP180;58740;50.672;18.690;2023-03-14T10:20:46;97134.00;;;11.06
71081;BMP180;58740;50.672;18.690;2023-03-14T10:25:46;97153.20;;;11.10
71081;BMP180;58740;50.672;18.690;2023-03-14T10:28:29;97154.60;;;11.10
71081;BMP180;58740;50.672;18.690;2023-03-14T10:30:58;97154.20;;;11.10
71081;BMP180;58740;50.672;18.690;2023-03-14T10:33:35;97159.40;;;11.10
71081;BMP180;58740;50.672;18.690;2023-03-14T10:38:37;97173.60;;;11.00
71081;BMP180;58740;50.672;18.690;2023-03-14T10:41:19;97176.20;;;11.00
71081;BMP180;58740;50.672;18.690;2023-03-14T10:43:56;97190.20;;;10.90
71081;BMP180;58740;50.672;18.690;2023-03-14T10:46:28;97204.20;;;10.90
71081;BMP180;58740;50.672;18.690;2023-03-14T10:48:57;97204.40;;;10.80
71081;BMP180;58740;50.672;18.690;2023-03-14T10:51:29;97207.60;;;10.70
71081;BMP180;58740;50.672;18.690;2023-03-14T10:54:02;97205.80;;;10.70
71081;BMP180;58740;50.672;18.690;2023-03-14T10:56:36;97200.80;;;10.60
71081;BMP180;58740;50.672;18.690;2023-03-14T10:59:14;97215.20;;;10.60
71081;BMP180;58740;50.672;18.690;2023-03-14T11:02:01;97219.40;;;10.50
71081;BMP180;58740;50.672;18.690;2023-03-14T11:04:55;97228.00;;;10.48
71081;BMP180;58740;50.672;18.690;2023-03-14T11:07:37;97231.80;;;10.40
71081;BMP180;58740;50.672;18.690;2023-03-14T11:10:23;97236.80;;;10.40
71081;BMP180;58740;50.672;18.690;2023-03-14T11:18:57;97248.40;;;10.30
71081;BMP180;58740;50.672;18.690;2023-03-14T11:24:44;97240.60;;;10.30
71081;BMP180;58740;50.672;18.690;2023-03-14T11:27:25;97245.60;;;10.30
71081;BMP180;58740;50.672;18.690;2023-03-14T11:30:23;97239.00;;;10.20
71081;BMP180;58740;50.672;18.690;2023-03-14T11:33:14;97232.00;;;10.20
71081;BMP180;58740;50.672;18.690;2023-03-14T11:36:09;97233.20;;;10.20
71081;BMP180;58740;50.672;18.690;2023-03-14T11:38:48;97231.00;;;10.20
71081;BMP180;58740;50.672;18.690;2023-03-14T11:41:23;97229.20;;;10.20
71081;BMP180;58740;50.672;18.690;2023-03-14T11:43:58;97229.60;;;10.20
71081;BMP180;58740;50.672;18.690;2023-03-14T11:46:39;97228.00;;;10.20
71081;BMP180;58740;50.672;18.690;2023-03-14T11:49:27;97225.20;;;10.20
71081;BMP180;58740;50.672;18.690;2023-03-14T11:52:05;97226.40;;;10.14
71081;BMP180;58740;50.672;18.690;2023-03-14T11:54:45;97239.60;;;10.10
71081;BMP180;58740;50.672;18.690;2023-03-14T11:57:21;97239.80;;;10.10
71081;BMP180;58740;50.672;18.690;2023-03-14T12:00:18;97236.60;;;10.10
71081;BMP180;58740;50.672;18.690;2023-03-14T12:16:58;97190.20;;;10.20
71081;BMP180;58740;50.672;18.690;2023-03-14T12:19:29;97185.20;;;10.20
71081;BMP180;58740;50.672;18.690;2023-03-14T12:22:24;97176.80;;;10.20
71081;BMP180;58740;50.672;18.690;2023-03-14T12:25:03;97171.80;;;10.30
71081;BMP180;58740;50.672;18.690;2023-03-14T12:28:18;97166.80;;;10.30
71081;BMP180;58740;50.672;18.690;2023-03-14T12:30:47;97168.60;;;10.40
71081;BMP180;58740;50.672;18.690;2023-03-14T12:35:50;97170.20;;;10.40
71081;BMP180;58740;50.672;18.690;2023-03-14T12:41:20;97168.40;;;10.30
71081;BMP180;58740;50.672;18.690;2023-03-14T12:43:49;97176.00;;;10.30
71081;BMP180;58740;50.672;18.690;2023-03-14T12:49:03;97173.00;;;10.30
71081;BMP180;58740;50.672;18.690;2023-03-14T12:51:41;97172.40;;;10.30
71081;BMP180;58740;50.672;18.690;2023-03-14T12:59:52;97173.20;;;10.30
71081;BMP180;58740;50.672;18.690;2023-03-14T13:05:24;97179.00;;;10.30
71081;BMP180;58740;50.672;18.690;2023-03-14T13:10:30;97179.80;;;10.32
71081;BMP180;58740;50.672;18.690;2023-03-14T13:13:34;97180.80;;;10.30
71081;BMP180;58740;50.672;18.690;2023-03-14T13:16:02;97184.60;;;10.26
71081;BMP180;58740;50.672;18.690;2023-03-14T13:18:40;97175.20;;;10.20
71081;BMP180;58740;50.672;18.690;2023-03-14T13:21:24;97179.40;;;10.20
71081;BMP180;58740;50.672;18.690;2023-03-14T13:24:20;97178.40;;;10.20
71081;BMP180;58740;50.672;18.690;2023-03-14T13:26:49;97176.20;;;10.20
71081;BMP180;58740;50.672;18.690;2023-03-14T13:29:30;97169.40;;;10.20
71081;BMP180;58740;50.672;18.690;2023-03-14T13:32:17;97164.20;;;10.20
71081;BMP180;58740;50.672;18.690;2023-03-14T13:34:47;97172.20;;;10.20
71081;BMP180;58740;50.672;18.690;2023-03-14T13:37:21;97175.40;;;10.20
71081;BMP180;58740;50.672;18.690;2023-03-14T13:39:55;97172.60;;;10.20
71081;BMP180;58740;50.672;18.690;2023-03-14T13:42:29;97180.80;;;10.20
71081;BMP180;58740;50.672;18.690;2023-03-14T13:44:57;97177.40;;;10.20
71081;BMP180;58740;50.672;18.690;2023-03-14T13:47:26;97172.20;;;10.20
71081;BMP180;58740;50.672;18.690;2023-03-14T13:49:54;97165.00;;;10.20
71081;BMP180;58740;50.672;18.690;2023-03-14T13:52:36;97160.60;;;10.20
71081;BMP180;58740;50.672;18.690;2023-03-14T13:55:13;97169.40;;;10.20
71081;BMP180;58740;50.672;18.690;2023-03-14T13:57:48;97169.40;;;10.20
71081;BMP180;58740;50.672;18.690;2023-03-14T14:00:25;97167.40;;;10.20
71081;BMP180;58740;50.672;18.690;2023-03-14T14:02:58;97167.60;;;10.20
71081;BMP180;58740;50.672;18.690;2023-03-14T14:05:29;97162.20;;;10.20
71081;BMP180;58740;50.672;18.690;2023-03-14T14:07:58;97150.40;;;10.20
71081;BMP180;58740;50.672;18.690;2023-03-14T14:10:29;97146.60;;;10.30
71081;BMP180;58740;50.672;18.690;2023-03-14T14:13:03;97141.20;;;10.30
71081;BMP180;58740;50.672;18.690;2023-03-14T14:15:41;97148.00;;;10.30
71081;BMP180;58740;50.672;18.690;2023-03-14T14:18:14;97139.40;;;10.30
71081;BMP180;58740;50.672;18.690;2023-03-14T14:20:46;97134.00;;;10.30
71081;BMP180;58740;50.672;18.690;2023-03-14T14:23:21;97130.60;;;10.32
71081;BMP180;58740;50.672;18.690;2023-03-14T14:25:55;97131.40;;;10.32
71081;BMP180;58740;50.672;18.690;2023-03-14T14:28:31;97150.40;;;10.40
71081;BMP180;58740;50.672;18.690;2023-03-14T14:31:20;97147.40;;;10.40
71081;BMP180;58740;50.672;18.690;2023-03-14T14:34:01;97136.80;;;10.40
71081;BMP180;58740;50.672;18.690;2023-03-14T14:36:39;97145.00;;;10.40
71081;BMP180;58740;50.672;18.690;2023-03-14T14:39:24;97157.20;;;10.40
71081;BMP180;58740;50.672;18.690;2023-03-14T14:41:53;97156.00;;;10.40
71081;BMP180;58740;50.672;18.690;2023-03-14T14:44:30;97147.20;;;10.44
71081;BMP180;58740;50.672;18.690;2023-03-14T14:47:03;97141.40;;;10.40
71081;BMP180;58740;50.672;18.690;2023-03-14T14:49:33;97139.60;;;10.40
71081;BMP180;58740;50.672;18.690;2023-03-14T14:52:19;97137.80;;;10.40
71081;BMP180;58740;50.672;18.690;2023-03-14T14:57:24;97136.60;;;10.40
71081;BMP180;58740;50.672;18.690;2023-03-14T14:59:56;97129.80;;;10.40
71081;BMP180;58740;50.672;18.690;2023-03-14T15:02:46;97130.60;;;10.42
71081;BMP180;58740;50.672;18.690;2023-03-14T15:05:18;97119.40;;;10.42
71081;BMP180;58740;50.672;18.690;2023-03-14T15:07:47;97122.60;;;10.42
71081;BMP180;58740;50.672;18.690;2023-03-14T15:10:19;97121.80;;;10.40
71081;BMP180;58740;50.672;18.690;2023-03-14T15:12:47;97122.00;;;10.40
71081;BMP180;58740;50.672;18.690;2023-03-14T15:15:16;97120.80;;;10.40
71081;BMP180;58740;50.672;18.690;2023-03-14T15:17:44;97113.20;;;10.40
71081;BMP180;58740;50.672;18.690;2023-03-14T15:20:15;97102.00;;;10.40
71081;BMP180;58740;50.672;18.690;2023-03-14T15:22:43;97101.00;;;10.40